Time;durP1;ratioP1;P1;durP2;ratioP2;P2;SDS_P1;SDS_P2;PMS_P1;PMS_P2;Temp;Humidity;BMP_temperature;BMP_pressure;BME280_temperature;BME280_humidity;BME280_pressure;Samples;Min_cycle;Max_cycle;Signal;HPM_P1;HPM_P2
2022/11/19 00:00:35;;;;;;;25.95;13.20;;;;;;;-0.85;100.00;97771.91;4913474;29;20118;-83
2022/11/19 00:03:21;;;;;;;24.75;14.65;;;;;;;-0.60;100.00;97778.69;4939663;29;20082;-80
2022/11/19 00:06:15;;;;;;;27.52;15.65;;;;;;;-0.95;100.00;97778.28;4911023;29;20039;-82
2022/11/19 00:08:59;;;;;;;29.73;16.00;;;;;;;-1.05;100.00;97788.94;4896391;29;20040;-81
2022/11/19 00:14:47;;;;;;;28.20;15.27;;;;;;;-1.00;100.00;97801.63;4882611;29;20060;-85
2022/11/19 00:17:32;;;;;;;28.00;15.75;;;;;;;-0.92;100.00;97807.31;4880909;29;20395;-83
2022/11/19 00:20:18;;;;;;;27.80;16.15;;;;;;;-0.84;100.00;97806.19;4907258;29;20116;-84
2022/11/19 00:23:03;;;;;;;30.17;15.52;;;;;;;-0.89;100.00;97803.78;4908605;29;20123;-82
2022/11/19 00:25:47;;;;;;;31.60;18.67;;;;;;;-1.17;100.00;97804.78;4897570;29;20069;-83
2022/11/19 00:28:33;;;;;;;27.20;15.00;;;;;;;-1.04;100.00;97821.44;4897747;29;20043;-82
2022/11/19 00:31:17;;;;;;;28.75;16.33;;;;;;;-0.86;100.00;97813.94;4900353;29;20048;-88
2022/11/19 00:34:03;;;;;;;28.58;16.02;;;;;;;-0.81;100.00;97816.34;4905761;29;20044;-81
2022/11/19 00:36:49;;;;;;;30.50;15.35;;;;;;;-0.88;100.00;97823.44;4894539;29;20036;-87
2022/11/19 00:39:35;;;;;;;28.60;15.93;;;;;;;-0.96;100.00;97821.16;4884873;29;20055;-84
2022/11/19 00:42:20;;;;;;;28.95;15.02;;;;;;;-0.94;100.00;97827.09;4898102;29;20047;-88
2022/11/19 00:45:06;;;;;;;28.52;16.73;;;;;;;-0.91;100.00;97837.28;4884258;29;20118;-85
2022/11/19 00:47:50;;;;;;;29.20;15.75;;;;;;;-1.12;100.00;97841.47;4879159;29;20463;-84
2022/11/19 00:50:35;;;;;;;28.23;15.65;;;;;;;-0.80;100.00;97846.34;4877363;29;20051;-84
2022/11/19 00:53:22;;;;;;;28.92;16.17;;;;;;;-1.14;100.00;97869.78;4882483;29;20036;-82
2022/11/19 00:56:12;;;;;;;26.70;15.18;;;;;;;-1.03;100.00;97884.84;4873158;29;20060;-81
2022/11/19 00:58:56;;;;;;;25.85;14.93;;;;;;;-0.93;100.00;97893.06;4893971;29;20039;-81
2022/11/19 01:01:42;;;;;;;30.45;16.25;;;;;;;-1.00;100.00;97901.91;4900810;29;20055;-83
2022/11/19 01:04:28;;;;;;;24.90;13.55;;;;;;;-0.91;100.00;97909.28;4897312;29;20489;-85
2022/11/19 01:07:13;;;;;;;28.05;16.02;;;;;;;-0.84;100.00;97912.50;4897009;29;20127;-84
2022/11/19 01:10:02;;;;;;;34.70;17.42;;;;;;;-0.98;100.00;97912.13;4882768;29;20083;-84
2022/11/19 01:15:51;;;;;;;30.45;16.35;;;;;;;-1.07;100.00;97906.41;4891700;29;20052;-82
2022/11/19 01:18:37;;;;;;;30.60;16.25;;;;;;;-1.04;100.00;97902.88;4895681;29;20132;-82
2022/11/19 01:21:24;;;;;;;27.92;16.75;;;;;;;-0.94;100.00;97917.13;4892756;29;20051;-81
2022/11/19 01:24:12;;;;;;;30.85;16.55;;;;;;;-1.03;100.00;97920.03;4895207;29;20050;-81
2022/11/19 01:26:59;;;;;;;28.60;16.00;;;;;;;-0.95;100.00;97919.75;4916885;29;20080;-83
2022/11/19 01:29:44;;;;;;;29.98;16.70;;;;;;;-1.25;100.00;97924.16;4896355;29;20056;-84
2022/11/19 01:32:29;;;;;;;32.20;18.27;;;;;;;-1.13;100.00;97922.06;4891966;29;20151;-82
2022/11/19 01:35:14;;;;;;;31.90;17.48;;;;;;;-1.14;100.00;97916.06;4894497;29;20107;-83
2022/11/19 01:37:59;;;;;;;31.00;16.05;;;;;;;-0.97;100.00;97924.09;4878973;29;20044;-83
2022/11/19 01:40:44;;;;;;;28.45;16.33;;;;;;;-1.32;100.00;97919.28;4868474;29;20500;-83
2022/11/19 01:43:46;;;;;;;32.60;17.90;;;;;;;-1.47;100.00;97931.75;4884205;29;20471;-82
2022/11/19 01:46:36;;;;;;;33.78;17.98;;;;;;;-1.47;100.00;97949.75;4894280;29;20537;-81
2022/11/19 01:49:21;;;;;;;32.22;17.83;;;;;;;-1.46;100.00;97948.84;4883653;29;20037;-84
2022/11/19 01:52:06;;;;;;;34.22;17.65;;;;;;;-1.59;100.00;97937.28;4900026;29;20107;-82
2022/11/19 01:54:54;;;;;;;31.45;17.40;;;;;;;-1.70;100.00;97929.91;4894794;29;20095;-82
2022/11/19 01:57:39;;;;;;;34.60;18.30;;;;;;;-1.76;100.00;97929.22;4877465;29;20118;-83
2022/11/19 02:00:25;;;;;;;32.72;18.27;;;;;;;-1.55;100.00;97921.69;4882906;29;20051;-85
2022/11/19 02:03:12;;;;;;;34.38;19.00;;;;;;;-1.64;100.00;97925.44;4880021;29;20050;-83
2022/11/19 02:05:59;;;;;;;34.88;17.52;;;;;;;-1.73;100.00;97939.38;4894237;29;20490;-82
2022/11/19 02:08:46;;;;;;;33.13;17.10;;;;;;;-1.45;100.00;97949.69;4894105;29;20050;-83
2022/11/19 02:11:52;;;;;;;34.10;18.40;;;;;;;-1.46;100.00;97956.56;4891281;29;20044;-83
2022/11/19 02:14:56;;;;;;;34.78;19.25;;;;;;;-1.46;100.00;97968.53;4882253;29;20044;-82
2022/11/19 02:17:55;;;;;;;36.03;19.05;;;;;;;-1.43;100.00;97973.59;4883414;29;20147;-82
2022/11/19 02:20:40;;;;;;;36.60;19.38;;;;;;;-1.67;100.00;97979.47;4889820;29;20792;-82
2022/11/19 02:23:31;;;;;;;37.92;19.67;;;;;;;-2.03;100.00;97980.53;4900864;29;20515;-82
2022/11/19 02:26:45;;;;;;;34.22;19.20;;;;;;;-1.73;100.00;97984.81;4885539;29;20480;-81
2022/11/19 02:29:30;;;;;;;35.08;19.23;;;;;;;-1.77;100.00;97983.19;4894072;29;20071;-83
2022/11/19 02:32:20;;;;;;;34.28;18.48;;;;;;;-1.66;100.00;97994.00;4879438;29;20135;-83
2022/11/19 02:35:46;;;;;;;33.03;17.98;;;;;;;-1.56;100.00;97983.41;4894018;29;20127;-82
2022/11/19 02:39:05;;;;;;;34.17;19.17;;;;;;;-1.62;100.00;97987.03;4870328;29;20497;-83
2022/11/19 02:42:01;;;;;;;38.42;19.60;;;;;;;-1.95;100.00;98002.56;4759902;29;20066;-81
2022/11/19 02:45:01;;;;;;;40.58;21.75;;;;;;;-1.90;100.00;98006.69;4787841;29;20518;-82
2022/11/19 02:48:02;;;;;;;39.28;20.35;;;;;;;-1.92;100.00;98011.03;4778557;29;20055;-83
2022/11/19 02:50:52;;;;;;;41.47;20.90;;;;;;;-1.79;100.00;98037.19;4781686;29;20066;-83
2022/11/19 02:53:37;;;;;;;37.05;20.05;;;;;;;-1.82;100.00;98033.88;4791111;29;20051;-83
2022/11/19 02:56:48;;;;;;;39.10;20.50;;;;;;;-1.93;100.00;98035.03;4813364;29;20062;-83
2022/11/19 03:06:24;;;;;;;38.58;21.42;;;;;;;-2.07;100.00;98045.69;4791788;29;20171;-82
2022/11/19 03:09:10;;;;;;;37.85;20.45;;;;;;;-1.90;100.00;98040.09;4802702;29;20043;-83
2022/11/19 03:12:08;;;;;;;42.53;21.88;;;;;;;-1.93;100.00;98053.00;4793029;29;20421;-82
2022/11/19 03:18:17;;;;;;;38.78;20.65;;;;;;;-1.79;100.00;98064.59;4859891;29;20126;-82
2022/11/19 03:21:13;;;;;;;37.70;20.05;;;;;;;-1.91;100.00;98078.66;4900143;29;20329;-82
2022/11/19 03:24:04;;;;;;;39.65;20.38;;;;;;;-1.90;100.00;98080.31;4883743;29;20044;-83
2022/11/19 03:26:58;;;;;;;36.40;19.90;;;;;;;-1.89;100.00;98090.53;4894068;29;20040;-82
2022/11/19 03:29:48;;;;;;;35.58;19.30;;;;;;;-1.93;100.00;98100.94;4884352;29;20040;-82
2022/11/19 03:32:46;;;;;;;39.55;20.13;;;;;;;-1.92;100.00;98105.19;4895446;29;20048;-83
2022/11/19 03:35:41;;;;;;;35.85;19.70;;;;;;;-1.86;100.00;98105.88;4882818;29;20048;-84
2022/11/19 03:38:30;;;;;;;38.65;19.95;;;;;;;-1.92;100.00;98105.19;4895816;29;20059;-84
2022/11/19 03:41:19;;;;;;;37.05;19.38;;;;;;;-1.81;100.00;98115.19;4881936;29;20457;-85
2022/11/19 03:44:11;;;;;;;35.38;19.35;;;;;;;-1.74;100.00;98114.09;4885251;29;20036;-84
2022/11/19 03:47:03;;;;;;;37.92;20.33;;;;;;;-1.73;100.00;98110.69;4887636;29;20055;-83
2022/11/19 03:49:56;;;;;;;36.25;18.80;;;;;;;-1.74;100.00;98111.53;4887610;29;20501;-85
2022/11/19 03:52:42;;;;;;;33.58;17.88;;;;;;;-1.79;100.00;98126.25;4881667;29;20127;-91
2022/11/19 03:55:50;;;;;;;31.55;18.05;;;;;;;-1.88;100.00;98130.75;4905107;29;20076;-84
2022/11/19 03:58:39;;;;;;;30.98;17.98;;;;;;;-1.75;100.00;98138.13;4885536;29;20044;-83
2022/11/19 04:01:24;;;;;;;36.75;19.92;;;;;;;-1.83;100.00;98140.91;4899397;29;20056;-82
2022/11/19 04:07:15;;;;;;;32.25;17.90;;;;;;;-1.60;100.00;98152.28;4903592;29;20055;-86
2022/11/19 04:09:59;;;;;;;37.10;20.60;;;;;;;-1.57;100.00;98153.91;4890723;29;20040;-83
2022/11/19 04:12:45;;;;;;;33.08;17.77;;;;;;;-1.66;100.00;98145.56;4899490;29;20090;-83
2022/11/19 04:15:29;;;;;;;37.13;19.25;;;;;;;-1.75;100.00;98140.69;4886557;29;20468;-81
2022/11/19 04:18:14;;;;;;;34.58;18.83;;;;;;;-1.57;100.00;98154.75;4887473;29;20056;-82
2022/11/19 04:20:59;;;;;;;32.72;17.58;;;;;;;-1.48;100.00;98145.91;4877389;29;20130;-83
2022/11/19 04:23:44;;;;;;;31.17;17.08;;;;;;;-1.55;99.80;98157.28;4889204;29;20051;-83
2022/11/19 04:26:28;;;;;;;31.30;17.10;;;;;;;-1.64;99.26;98143.78;4898448;29;20063;-84
2022/11/19 04:29:13;;;;;;;30.33;16.83;;;;;;;-1.73;99.04;98138.94;4886057;29;20066;-82
2022/11/19 04:31:58;;;;;;;31.60;16.88;;;;;;;-1.65;99.78;98146.41;4881665;29;20050;-83
2022/11/19 04:34:43;;;;;;;33.72;17.58;;;;;;;-1.79;99.26;98147.63;4896932;29;20051;-85
2022/11/19 04:37:27;;;;;;;34.40;18.65;;;;;;;-1.58;99.58;98144.50;4878438;29;20072;-84
2022/11/19 04:40:13;;;;;;;29.73;16.73;;;;;;;-1.71;99.22;98129.44;4887423;29;20062;-83
2022/11/19 04:42:57;;;;;;;32.20;15.57;;;;;;;-1.72;98.52;98148.31;4898551;29;20055;-83
2022/11/19 04:45:42;;;;;;;30.77;16.10;;;;;;;-1.80;98.17;98161.38;4869963;29;20058;-84
2022/11/19 04:48:26;;;;;;;26.25;15.10;;;;;;;-1.55;100.00;98164.97;4892800;29;20143;-82
2022/11/19 04:51:11;;;;;;;28.45;15.60;;;;;;;-1.43;98.15;98156.91;4911428;29;20054;-84
2022/11/19 04:53:56;;;;;;;29.60;16.60;;;;;;;-1.49;96.92;98177.66;4905178;29;20036;-82
2022/11/19 04:56:41;;;;;;;30.40;15.75;;;;;;;-1.44;97.60;98173.22;4933135;29;20052;-83
2022/11/19 04:59:26;;;;;;;30.27;17.05;;;;;;;-1.49;95.62;98180.22;4907897;29;20059;-80
2022/11/19 05:02:11;;;;;;;33.00;16.40;;;;;;;-1.44;98.00;98188.63;4907499;29;20139;-81
2022/11/19 05:04:56;;;;;;;31.25;16.98;;;;;;;-1.51;95.68;98194.81;4889290;29;20052;-81
2022/11/19 05:07:41;;;;;;;27.27;16.40;;;;;;;-1.33;99.23;98210.59;4883949;29;20581;-83
2022/11/19 05:10:26;;;;;;;29.75;16.23;;;;;;;-1.48;97.30;98207.59;4882972;29;20064;-82
2022/11/19 05:13:11;;;;;;;30.55;17.30;;;;;;;-1.50;96.28;98206.78;4896413;29;20063;-84
2022/11/19 05:15:56;;;;;;;30.90;16.17;;;;;;;-1.42;97.60;98220.25;4893503;29;20063;-84
2022/11/19 05:18:41;;;;;;;25.67;14.68;;;;;;;-1.28;98.87;98229.31;4862927;29;20578;-83
2022/11/19 05:21:26;;;;;;;29.30;14.88;;;;;;;-1.32;96.50;98245.72;4864006;29;20417;-84
2022/11/19 05:24:11;;;;;;;30.27;16.27;;;;;;;-1.46;95.89;98240.94;4852752;29;20150;-84
2022/11/19 05:26:55;;;;;;;27.63;14.95;;;;;;;-1.90;98.23;98242.09;4839383;29;20108;-83
2022/11/19 05:29:41;;;;;;;30.20;16.13;;;;;;;-1.66;98.36;98243.19;4840073;29;20477;-81
2022/11/19 05:32:25;;;;;;;28.42;15.88;;;;;;;-1.51;98.44;98246.22;4855395;29;20137;-83
2022/11/19 05:35:10;;;;;;;28.55;15.57;;;;;;;-1.52;98.97;98257.41;4881684;29;20115;-82
2022/11/19 05:37:54;;;;;;;29.88;16.60;;;;;;;-1.55;98.63;98253.16;4880168;29;20051;-83
2022/11/19 05:40:39;;;;;;;27.65;15.88;;;;;;;-1.63;98.67;98245.66;4864475;29;20503;-83
2022/11/19 05:43:24;;;;;;;29.83;15.80;;;;;;;-1.46;99.75;98254.66;4875128;29;20049;-84
2022/11/19 05:46:10;;;;;;;26.75;15.15;;;;;;;-1.33;98.82;98236.31;4875453;29;20040;-82
2022/11/19 05:48:55;;;;;;;25.73;13.85;;;;;;;-1.34;99.03;98250.06;4890924;29;20129;-83
2022/11/19 05:51:40;;;;;;;27.70;15.60;;;;;;;-1.32;97.59;98251.69;4863405;29;20056;-84
2022/11/19 05:54:24;;;;;;;28.05;14.73;;;;;;;-1.49;98.09;98254.75;4875091;29;21026;-84
2022/11/19 05:57:10;;;;;;;27.73;15.60;;;;;;;-1.43;98.22;98256.28;4894370;29;20412;-83
2022/11/19 05:59:55;;;;;;;28.00;16.13;;;;;;;-1.52;99.23;98273.63;4880514;29;20055;-82
2022/11/19 06:02:39;;;;;;;29.48;16.05;;;;;;;-1.53;98.43;98279.66;4894310;29;20086;-82
2022/11/19 06:05:24;;;;;;;26.33;14.95;;;;;;;-1.65;98.22;98273.13;4879106;29;20048;-83
2022/11/19 06:08:09;;;;;;;28.15;16.70;;;;;;;-1.32;99.64;98261.16;4882062;29;20036;-83
2022/11/19 06:10:54;;;;;;;28.02;14.82;;;;;;;-1.35;97.96;98263.81;4895393;29;20436;-84
2022/11/19 06:13:39;;;;;;;27.80;15.07;;;;;;;-1.50;99.36;98269.31;4882144;29;20040;-83
2022/11/19 06:16:25;;;;;;;29.33;14.98;;;;;;;-1.43;98.82;98271.72;4872654;29;20599;-84
2022/11/19 06:19:11;;;;;;;26.10;15.15;;;;;;;-1.53;100.00;98268.53;4905367;29;20044;-84
2022/11/19 06:21:56;;;;;;;24.10;14.25;;;;;;;-1.59;100.00;98295.25;4885982;29;20064;-83
2022/11/19 06:25:01;;;;;;;25.52;14.50;;;;;;;-1.67;100.00;98297.19;5092986;27;20490;-85
2022/11/19 06:27:46;;;;;;;27.50;15.02;;;;;;;-1.56;100.00;98308.03;5071090;28;20450;-83
2022/11/19 06:30:31;;;;;;;28.00;16.55;;;;;;;-2.03;100.00;98295.50;5087461;28;20033;-84
2022/11/19 06:33:21;;;;;;;25.30;14.50;;;;;;;-1.91;100.00;98290.06;5074170;28;20139;-84
2022/11/19 06:36:06;;;;;;;25.65;14.23;;;;;;;-1.73;100.00;98283.59;5071438;28;20128;-85
2022/11/19 06:38:51;;;;;;;26.23;14.57;;;;;;;-1.59;100.00;98294.41;5055005;28;20116;-84
2022/11/19 06:41:36;;;;;;;25.88;14.38;;;;;;;-1.57;100.00;98301.22;5054119;28;20047;-83
2022/11/19 06:44:23;;;;;;;28.40;13.88;;;;;;;-1.65;100.00;98298.81;5042035;28;20127;-84
2022/11/19 06:47:11;;;;;;;24.30;13.40;;;;;;;-1.56;100.00;98302.03;5059921;28;20046;-84
2022/11/19 06:49:56;;;;;;;26.52;15.15;;;;;;;-1.87;100.00;98306.22;5054964;28;20500;-84
2022/11/19 06:52:41;;;;;;;28.05;15.15;;;;;;;-1.77;100.00;98327.41;5067168;28;20051;-84
2022/11/19 06:55:28;;;;;;;23.58;12.98;;;;;;;-1.55;100.00;98342.28;5069278;28;20056;-84
2022/11/19 06:58:14;;;;;;;23.08;12.80;;;;;;;-1.55;100.00;98332.81;5069322;28;20102;-83
2022/11/19 07:01:01;;;;;;;25.30;14.23;;;;;;;-1.61;100.00;98341.53;5068861;28;20044;-86
2022/11/19 07:03:46;;;;;;;23.63;12.73;;;;;;;-1.44;100.00;98340.28;5043205;28;20162;-83
2022/11/19 07:06:32;;;;;;;22.67;12.80;;;;;;;-1.09;100.00;98335.06;5044390;28;20055;-84
2022/11/19 07:09:16;;;;;;;22.92;12.80;;;;;;;-1.47;98.46;98342.06;5044338;28;20048;-83
2022/11/19 07:12:01;;;;;;;22.13;12.75;;;;;;;-1.21;99.95;98340.53;5047384;28;20522;-88
2022/11/19 07:14:46;;;;;;;22.48;11.70;;;;;;;-1.01;98.56;98345.13;5014415;28;20159;-81
2022/11/19 07:17:31;;;;;;;24.38;13.85;;;;;;;-1.47;96.45;98355.78;5053719;28;20134;-84
2022/11/19 07:20:16;;;;;;;21.60;12.02;;;;;;;-1.33;99.70;98365.69;5052921;28;20537;-86
2022/11/19 07:23:09;;;;;;;24.98;13.57;;;;;;;-1.37;97.80;98369.22;5050665;28;20048;-85
2022/11/19 07:26:00;;;;;;;22.08;11.95;;;;;;;-1.27;97.89;98370.66;5045664;28;20048;-85
2022/11/19 07:28:44;;;;;;;20.73;11.77;;;;;;;-1.27;97.81;98367.25;5046145;28;20086;-85
2022/11/19 07:31:29;;;;;;;22.33;12.27;;;;;;;-1.14;96.75;98373.75;5052859;28;20127;-85
2022/11/19 07:34:14;;;;;;;23.17;11.70;;;;;;;-1.21;96.60;98372.25;5027859;28;20057;-85
2022/11/19 07:36:58;;;;;;;20.73;12.85;;;;;;;-1.32;94.58;98372.50;5011572;28;20068;-83
2022/11/19 07:39:45;;;;;;;24.10;12.27;;;;;;;-1.34;96.25;98387.16;5018381;28;20068;-84
2022/11/19 07:42:51;;;;;;;19.63;11.50;;;;;;;-1.10;96.64;98382.22;5044478;28;20032;-84
2022/11/19 07:45:45;;;;;;;21.67;12.60;;;;;;;-1.56;95.06;98387.69;5056667;28;20040;-85
2022/11/19 07:48:46;;;;;;;21.45;11.68;;;;;;;-1.52;98.37;98398.72;5069446;28;20048;-84
2022/11/19 07:51:32;;;;;;;20.10;11.55;;;;;;;-1.08;96.50;98398.47;5055347;28;20131;-85
2022/11/19 07:54:17;;;;;;;18.08;10.10;;;;;;;-0.82;97.54;98414.06;5062712;28;20044;-84
2022/11/19 07:57:02;;;;;;;21.67;12.35;;;;;;;-0.70;98.46;98415.47;5072849;28;20242;-85
2022/11/19 07:59:47;;;;;;;22.67;12.85;;;;;;;-0.98;95.95;98418.78;5055032;28;20105;-84
2022/11/19 08:02:32;;;;;;;18.85;10.48;;;;;;;-0.95;97.70;98429.00;5059402;28;20275;-83
2022/11/19 08:05:16;;;;;;;19.83;11.38;;;;;;;-0.97;97.80;98428.19;5037671;28;20104;-86
2022/11/19 08:08:02;;;;;;;17.83;10.77;;;;;;;-0.67;97.39;98443.69;5027135;28;20122;-85
2022/11/19 08:10:46;;;;;;;19.55;11.18;;;;;;;-0.50;96.47;98441.47;5057745;28;20713;-85
2022/11/19 08:13:33;;;;;;;16.77;10.05;;;;;;;-0.33;95.72;98437.59;5046482;28;20546;-84
2022/11/19 08:19:21;;;;;;;19.27;10.98;;;;;;;0.08;98.57;98428.66;5058929;28;20094;-84
2022/11/19 08:22:10;;;;;;;21.60;12.55;;;;;;;0.00;91.45;98426.31;5026704;28;20198;-85
2022/11/19 08:24:55;;;;;;;18.75;11.38;;;;;;;-0.34;95.11;98417.84;5021915;28;20075;-86
2022/11/19 08:27:39;;;;;;;19.80;11.35;;;;;;;0.60;100.00;98427.88;5039349;28;20375;-85
2022/11/19 08:30:25;;;;;;;19.02;10.80;;;;;;;0.22;95.38;98428.22;5049228;28;20155;-88
2022/11/19 08:33:10;;;;;;;19.95;10.90;;;;;;;-0.04;96.11;98440.16;5044260;28;20143;-87
2022/11/19 08:35:58;;;;;;;17.35;9.68;;;;;;;-0.16;96.96;98433.66;5056819;28;20093;-87
2022/11/19 08:38:43;;;;;;;20.95;10.90;;;;;;;0.18;95.35;98437.78;5056997;28;20142;-84
2022/11/19 08:44:34;;;;;;;14.45;8.77;;;;;;;0.18;95.78;98432.63;5078130;28;20411;-88
2022/11/19 08:47:44;;;;;;;21.80;11.60;;;;;;;0.40;90.54;98444.84;5057089;28;20110;-86
2022/11/19 08:50:30;;;;;;;21.15;11.13;;;;;;;-0.06;89.69;98455.69;5050983;28;20057;-85
2022/11/19 08:53:14;;;;;;;21.55;11.65;;;;;;;0.07;89.41;98437.25;5046302;28;20138;-87
2022/11/19 08:56:02;;;;;;;18.25;9.57;;;;;;;0.17;90.71;98440.41;5057982;28;20090;-86
2022/11/19 08:58:47;;;;;;;18.85;10.88;;;;;;;0.42;89.54;98447.38;5051722;28;20040;-86
2022/11/19 09:01:35;;;;;;;18.02;10.30;;;;;;;0.53;87.52;98458.19;5058395;28;20040;-87
2022/11/19 09:04:21;;;;;;;15.98;9.50;;;;;;;0.92;89.06;98459.47;5052831;28;20048;-85
2022/11/19 09:07:15;;;;;;;17.35;10.02;;;;;;;0.87;86.43;98471.69;5035992;28;20404;-85
2022/11/19 09:09:59;;;;;;;19.48;11.75;;;;;;;0.78;87.75;98470.28;5056411;28;20047;-83
2022/11/19 09:12:44;;;;;;;22.50;12.75;;;;;;;0.20;85.52;98468.66;5045529;28;20047;-85
2022/11/19 09:15:30;;;;;;;23.42;12.98;;;;;;;-0.01;86.47;98471.84;5041110;28;20102;-82
2022/11/19 09:18:16;;;;;;;20.00;11.52;;;;;;;-0.05;85.52;98475.38;5064786;28;20059;-81
2022/11/19 09:21:01;;;;;;;19.17;10.98;;;;;;;0.11;87.34;98486.06;5078123;28;20073;-82
2022/11/19 09:23:49;;;;;;;20.08;11.85;;;;;;;0.17;84.75;98479.91;5074918;28;20073;-82
2022/11/19 09:26:34;;;;;;;20.52;11.40;;;;;;;0.05;86.33;98475.13;5074818;28;20104;-82
2022/11/19 09:29:27;;;;;;;20.60;11.07;;;;;;;0.03;83.28;98489.78;5061673;28;20048;-81
2022/11/19 09:32:11;;;;;;;19.92;11.55;;;;;;;-0.09;84.47;98483.25;5017687;28;20295;-83
2022/11/19 09:34:58;;;;;;;19.73;10.82;;;;;;;0.46;86.17;98482.44;5022382;28;20102;-85
2022/11/19 09:37:43;;;;;;;20.23;11.30;;;;;;;0.82;84.63;98495.06;4988895;28;20358;-84
2022/11/19 09:41:17;;;;;;;18.85;10.82;;;;;;;1.02;84.34;98501.31;5020657;28;20045;-86
2022/11/19 09:44:31;;;;;;;18.08;10.40;;;;;;;0.16;83.33;98506.56;4972252;28;20081;-86
2022/11/19 09:47:55;;;;;;;19.20;11.18;;;;;;;0.04;83.15;98497.47;4984568;28;20051;-83
2022/11/19 09:50:45;;;;;;;17.98;10.13;;;;;;;0.13;84.49;98498.94;4958544;28;20050;-84
2022/11/19 09:53:44;;;;;;;20.40;11.70;;;;;;;-0.13;84.47;98503.09;4972914;28;20042;-87
2022/11/19 09:57:24;;;;;;;21.17;11.82;;;;;;;-0.14;81.65;98491.13;4959277;28;20092;-86
2022/11/19 10:00:28;;;;;;;18.50;10.80;;;;;;;-0.17;82.55;98494.63;4977561;28;20116;-82
2022/11/19 10:03:24;;;;;;;18.77;10.18;;;;;;;0.51;82.09;98490.88;4992687;28;20054;-88
2022/11/19 10:06:23;;;;;;;19.20;10.15;;;;;;;0.94;83.09;98482.66;4985152;28;20053;-83
2022/11/19 10:09:25;;;;;;;18.15;9.32;;;;;;;1.07;82.21;98486.50;4990289;28;20055;-85
2022/11/19 10:12:37;;;;;;;17.08;9.30;;;;;;;0.86;78.81;98485.50;4949027;28;20525;-83
2022/11/19 10:15:34;;;;;;;19.08;10.45;;;;;;;0.76;79.11;98484.09;4973930;28;20054;-83
2022/11/19 10:19:01;;;;;;;16.85;9.50;;;;;;;1.14;80.40;98487.16;4972084;28;20046;-83
2022/11/19 10:22:23;;;;;;;15.63;9.93;;;;;;;1.80;80.65;98477.94;4985223;28;20061;-85
2022/11/19 10:25:21;;;;;;;18.30;10.38;;;;;;;1.65;77.00;98487.06;4999451;28;20062;-85
2022/11/19 10:28:26;;;;;;;14.82;9.68;;;;;;;0.94;76.07;98475.75;5013011;28;20049;-82
2022/11/19 10:31:28;;;;;;;18.13;10.43;;;;;;;1.23;81.06;98473.06;5023386;28;20135;-83
2022/11/19 10:34:27;;;;;;;;;;;;;;;1.01;79.30;98480.72;5013743;28;20407;-85
2022/11/19 10:37:15;;;;;;;17.50;10.07;;;;;;;0.88;76.61;98481.13;4999791;28;19982;-84
2022/11/19 10:40:07;;;;;;;19.65;9.70;;;;;;;0.98;79.79;98489.38;5008414;28;20041;-85
2022/11/19 10:43:31;;;;;;;17.95;9.77;;;;;;;0.94;80.31;98483.50;5012826;28;20049;-83
2022/11/19 10:46:21;;;;;;;15.73;9.65;;;;;;;1.15;78.41;98480.22;4962821;28;20128;-83
2022/11/19 10:49:09;;;;;;;18.70;9.98;;;;;;;0.95;78.47;98484.31;4948875;28;20571;-83
2022/11/19 10:51:53;;;;;;;18.15;10.57;;;;;;;1.03;79.51;98481.50;4973639;28;20409;-83
2022/11/19 10:54:39;;;;;;;19.08;10.88;;;;;;;0.96;74.50;98473.13;4976381;28;20880;-84
2022/11/19 10:57:27;;;;;;;18.42;10.80;;;;;;;0.63;75.90;98465.59;4966766;28;20046;-84
2022/11/19 11:00:14;;;;;;;17.77;9.85;;;;;;;1.38;79.65;98463.94;4989984;28;20501;-82
2022/11/19 11:03:03;;;;;;;23.40;13.18;;;;;;;1.63;75.73;98467.38;4962113;28;20076;-82
2022/11/19 11:06:04;;;;;;;17.45;10.30;;;;;;;0.91;73.90;98464.69;4963797;28;20049;-81
2022/11/19 11:08:53;;;;;;;18.27;9.75;;;;;;;0.95;76.30;98466.25;4996797;28;20057;-82
2022/11/19 11:14:51;;;;;;;18.52;10.55;;;;;;;1.02;72.77;98472.91;4983441;28;20046;-86
2022/11/19 11:17:37;;;;;;;19.85;11.38;;;;;;;1.20;77.37;98461.13;4953765;28;21097;-84
2022/11/19 11:20:27;;;;;;;20.80;9.90;;;;;;;1.85;77.78;98470.00;4966761;28;20045;-84
2022/11/19 11:23:28;;;;;;;18.67;9.73;;;;;;;2.08;74.95;98466.56;5024879;28;20040;-84
2022/11/19 11:26:20;;;;;;;18.48;10.93;;;;;;;1.97;72.95;98461.78;5048040;28;20478;-84
2022/11/19 11:29:28;;;;;;;16.80;10.20;;;;;;;1.75;72.90;98459.16;5044600;28;20071;-85
2022/11/19 11:32:34;;;;;;;17.17;9.40;;;;;;;1.66;72.91;98460.38;5059750;28;20064;-86
2022/11/19 11:35:33;;;;;;;12.93;7.68;;;;;;;2.00;76.63;98470.31;5070310;28;20033;-83
2022/11/19 11:38:21;;;;;;;18.33;10.20;;;;;;;1.88;71.87;98463.91;5052601;28;20086;-84
2022/11/19 11:41:17;;;;;;;17.55;9.68;;;;;;;1.63;75.12;98472.53;5068823;28;20040;-81
2022/11/19 11:44:13;;;;;;;15.57;9.55;;;;;;;1.99;73.82;98472.09;5040236;28;20055;-82
2022/11/19 11:47:09;;;;;;;17.13;9.95;;;;;;;1.93;69.61;98477.47;5054354;28;20044;-83
2022/11/19 11:50:22;;;;;;;15.60;8.60;;;;;;;1.80;72.53;98472.75;5069320;28;20237;-84
2022/11/19 11:53:08;;;;;;;16.52;9.35;;;;;;;1.87;74.24;98481.13;5044001;28;20468;-82
2022/11/19 11:56:01;;;;;;;15.13;9.18;;;;;;;2.04;75.70;98456.41;5042849;28;20048;-83
2022/11/19 11:58:46;;;;;;;14.88;8.73;;;;;;;2.15;73.49;98463.72;5055569;28;20074;-83
2022/11/19 12:01:32;;;;;;;16.25;8.80;;;;;;;2.15;72.02;98477.50;5057751;28;20080;-82
2022/11/19 12:04:17;;;;;;;13.73;8.27;;;;;;;1.86;73.58;98482.00;5040365;28;20059;-82
2022/11/19 12:07:02;;;;;;;17.90;9.95;;;;;;;2.07;73.94;98475.19;5040769;28;20456;-82
2022/11/19 12:10:11;;;;;;;16.05;9.20;;;;;;;2.21;72.99;98472.09;5038599;28;20496;-84
2022/11/19 12:12:59;;;;;;;15.98;9.30;;;;;;;1.83;69.75;98471.78;5061075;28;20081;-82
2022/11/19 12:15:55;;;;;;;14.13;8.40;;;;;;;1.59;73.64;98477.81;5041284;28;20067;-82
2022/11/19 12:19:17;;;;;;;16.75;9.77;;;;;;;1.68;72.40;98480.97;5040353;28;20060;-83
2022/11/19 12:22:26;;;;;;;15.25;8.65;;;;;;;1.82;75.19;98481.31;5048531;28;20040;-82
2022/11/19 12:25:33;;;;;;;15.27;8.85;;;;;;;2.10;75.25;98471.66;5077131;28;20400;-82
2022/11/19 12:28:42;;;;;;;15.70;8.98;;;;;;;2.25;68.94;98464.22;5041444;28;20502;-83
2022/11/19 12:31:48;;;;;;;16.63;9.18;;;;;;;1.93;71.90;98467.97;5053479;28;20047;-82
2022/11/19 12:34:53;;;;;;;15.20;9.02;;;;;;;2.07;71.20;98464.03;5055170;28;20568;-81
2022/11/19 12:37:37;;;;;;;17.45;9.32;;;;;;;2.52;73.20;98462.28;5045274;28;20036;-82
2022/11/19 12:40:30;;;;;;;14.70;8.60;;;;;;;2.44;69.19;98457.41;5058979;28;20034;-83
2022/11/19 12:43:40;;;;;;;15.23;8.60;;;;;;;1.83;70.07;98445.97;5042397;28;20085;-83
2022/11/19 12:46:27;;;;;;;13.48;9.00;;;;;;;1.95;72.89;98453.28;5067914;28;20411;-87
2022/11/19 12:49:30;;;;;;;16.00;8.82;;;;;;;1.77;67.01;98446.19;5058643;28;20123;-82
2022/11/19 12:52:30;;;;;;;15.07;8.88;;;;;;;1.85;69.91;98446.75;5044572;28;20035;-82
2022/11/19 12:55:33;;;;;;;15.23;9.18;;;;;;;2.25;72.50;98434.06;5057739;28;20033;-83
2022/11/19 12:58:37;;;;;;;14.57;8.20;;;;;;;2.46;70.97;98439.25;5051119;28;20087;-81
2022/11/19 13:01:28;;;;;;;13.88;8.32;;;;;;;2.46;67.95;98427.16;5039655;28;20115;-82
2022/11/19 13:04:22;;;;;;;14.57;7.97;;;;;;;2.52;69.81;98443.31;5050549;28;20051;-81
2022/11/19 13:07:21;;;;;;;13.25;7.65;;;;;;;2.61;67.40;98449.88;5048463;28;20039;-82
2022/11/19 13:10:22;;;;;;;13.48;8.55;;;;;;;2.45;68.57;98446.16;5043393;28;20488;-82
2022/11/19 13:13:10;;;;;;;11.68;7.25;;;;;;;2.34;67.58;98443.16;5070989;28;20038;-81
2022/11/19 13:16:06;;;;;;;14.75;7.95;;;;;;;1.89;67.25;98444.91;5071299;28;20123;-81
2022/11/19 13:18:54;;;;;;;14.45;8.38;;;;;;;2.30;68.54;98449.38;5045589;28;20547;-81
2022/11/19 13:21:45;;;;;;;15.05;8.93;;;;;;;2.43;68.42;98445.38;5043215;28;20393;-82
2022/11/19 13:24:47;;;;;;;11.38;7.22;;;;;;;2.54;68.67;98451.88;5042843;28;20068;-81
2022/11/19 13:27:35;;;;;;;12.77;7.93;;;;;;;2.40;67.83;98453.25;5062293;28;20093;-81
2022/11/19 13:30:25;;;;;;;14.15;8.88;;;;;;;2.03;66.02;98442.63;5042631;28;20072;-82
2022/11/19 13:33:18;;;;;;;14.30;8.80;;;;;;;1.98;69.14;98444.53;5059901;28;20121;-83
2022/11/19 13:36:26;;;;;;;12.27;7.80;;;;;;;2.09;71.92;98444.97;5058844;28;20067;-81